createdAt,value
2023-05-22T00:00:29.037Z,16.55
2023-05-22T00:01:02.181Z,15.00
2023-05-22T00:01:34.081Z,14.68
2023-05-22T00:02:06.034Z,15.18
2023-05-22T00:02:42.850Z,15.20
2023-05-22T00:03:15.169Z,14.98
2023-05-22T00:03:48.476Z,14.20
2023-05-22T00:04:21.687Z,16.45
2023-05-22T00:04:54.177Z,13.75
2023-05-22T00:05:26.038Z,16.27
2023-05-22T00:06:00.286Z,14.98
2023-05-22T00:06:33.945Z,15.55
2023-05-22T00:07:07.384Z,14.85
2023-05-22T00:07:39.726Z,14.60
2023-05-22T00:08:11.822Z,13.70
2023-05-22T00:08:44.761Z,14.68
2023-05-22T00:09:16.648Z,15.23
2023-05-22T00:09:48.512Z,15.40
2023-05-22T00:10:21.390Z,14.40
2023-05-22T00:10:53.328Z,14.25
2023-05-22T00:11:25.855Z,15.45
2023-05-22T00:11:58.738Z,15.13
2023-05-22T00:12:30.640Z,15.15
2023-05-22T00:13:02.453Z,16.33
2023-05-22T00:13:35.243Z,15.15
2023-05-22T00:14:07.236Z,15.43
2023-05-22T00:14:39.084Z,14.60
2023-05-22T00:15:14.046Z,15.20
2023-05-22T00:15:45.947Z,14.25
2023-05-22T00:16:17.800Z,14.45
2023-05-22T00:16:50.175Z,14.65
2023-05-22T00:17:23.767Z,13.48
2023-05-22T00:17:55.739Z,15.73
2023-05-22T00:18:27.802Z,16.50
2023-05-22T00:19:01.842Z,15.00
2023-05-22T00:19:33.829Z,14.75
2023-05-22T00:20:10.603Z,15.40
2023-05-22T00:20:46.335Z,14.65
2023-05-22T00:21:18.459Z,13.77
2023-05-22T00:21:51.784Z,14.35
2023-05-22T00:22:23.634Z,14.10
2023-05-22T00:22:56.816Z,15.60
2023-05-22T00:23:29.919Z,15.50
2023-05-22T00:24:01.817Z,15.35
2023-05-22T00:24:33.644Z,15.23
2023-05-22T00:25:07.699Z,14.32
2023-05-22T00:25:40.199Z,15.20
2023-05-22T00:26:15.612Z,16.38
2023-05-22T00:26:48.392Z,15.13
2023-05-22T00:27:20.200Z,15.52
2023-05-22T00:27:52.020Z,15.52
2023-05-22T00:28:24.802Z,14.23
2023-05-22T00:28:56.647Z,15.23
2023-05-22T00:29:28.460Z,14.80
2023-05-22T00:30:01.732Z,15.98
2023-05-22T00:30:35.215Z,15.88
2023-05-22T00:31:07.071Z,16.98
2023-05-22T00:31:39.843Z,15.02
2023-05-22T00:32:11.696Z,19.88
2023-05-22T00:32:43.570Z,16.05
2023-05-22T00:33:16.459Z,15.15
2023-05-22T00:33:48.493Z,14.63
2023-05-22T00:34:20.393Z,15.80
2023-05-22T00:34:53.419Z,14.52
2023-05-22T00:35:25.876Z,15.20
2023-05-22T00:35:57.738Z,16.08
2023-05-22T00:36:30.730Z,13.93
2023-05-22T00:37:02.545Z,15.63
2023-05-22T00:37:34.434Z,15.30
2023-05-22T00:38:07.282Z,15.35
2023-05-22T00:38:39.134Z,16.52
2023-05-22T00:39:11.252Z,16.67
2023-05-22T00:39:43.093Z,15.95
2023-05-22T00:40:16.558Z,15.27
2023-05-22T00:40:48.388Z,15.45
2023-05-22T00:41:21.606Z,15.30
2023-05-22T00:41:53.562Z,15.70
2023-05-22T00:42:26.409Z,15.68
2023-05-22T00:42:58.241Z,14.65
2023-05-22T00:43:30.369Z,15.15
2023-05-22T00:44:03.564Z,14.25
2023-05-22T00:44:35.567Z,15.50
2023-05-22T00:45:09.745Z,14.30
2023-05-22T00:45:43.886Z,14.68
2023-05-22T00:46:15.730Z,15.40
2023-05-22T00:46:47.610Z,14.38
2023-05-22T00:47:21.138Z,16.33
2023-05-22T00:47:53.795Z,13.95
2023-05-22T00:48:26.015Z,14.95
2023-05-22T00:48:58.943Z,15.10
2023-05-22T00:49:30.840Z,16.27
2023-05-22T00:50:03.207Z,15.13
2023-05-22T00:50:35.081Z,16.02
2023-05-22T00:51:08.223Z,16.17
2023-05-22T00:51:40.226Z,15.60
2023-05-22T00:52:14.428Z,15.00
2023-05-22T00:52:47.997Z,14.77
2023-05-22T00:53:21.440Z,16.25
2023-05-22T00:53:54.535Z,15.98
2023-05-22T00:54:27.416Z,13.82
2023-05-22T00:54:59.995Z,15.10
2023-05-22T00:55:31.850Z,16.00
2023-05-22T00:56:06.976Z,15.50
2023-05-22T00:56:41.076Z,16.88
2023-05-22T00:57:13.245Z,15.65
2023-05-22T00:57:46.055Z,14.35
2023-05-22T00:58:19.696Z,16.40
2023-05-22T00:58:51.552Z,16.92
2023-05-22T00:59:24.020Z,14.93
2023-05-22T00:59:57.406Z,15.57
2023-05-22T01:00:29.876Z,16.17
2023-05-22T01:01:03.386Z,15.98
2023-05-22T01:01:38.691Z,15.30
2023-05-22T01:02:10.626Z,15.95
2023-05-22T01:02:43.107Z,15.57
2023-05-22T01:03:17.003Z,16.80
2023-05-22T01:03:50.667Z,15.30
2023-05-22T01:04:22.876Z,14.75
2023-05-22T01:04:58.032Z,15.90
2023-05-22T01:05:30.095Z,15.55
2023-05-22T01:06:02.060Z,16.17
2023-05-22T01:06:34.244Z,15.70
2023-05-22T01:07:07.347Z,16.40
2023-05-22T01:07:39.215Z,15.50
2023-05-22T01:08:11.889Z,14.30
2023-05-22T01:08:44.975Z,14.40
2023-05-22T01:09:16.899Z,15.27
2023-05-22T01:09:48.780Z,17.02
2023-05-22T01:10:21.729Z,15.88
2023-05-22T01:11:04.611Z,15.98
2023-05-22T01:11:46.319Z,14.75
2023-05-22T01:12:32.722Z,14.82
2023-05-22T01:13:13.543Z,16.10
2023-05-22T01:13:55.963Z,17.13
2023-05-22T01:14:34.955Z,15.75
2023-05-22T01:15:17.439Z,13.55
2023-05-22T01:15:58.207Z,15.98
2023-05-22T01:16:41.704Z,15.30
2023-05-22T01:17:23.371Z,15.27
2023-05-22T01:18:11.083Z,16.33
2023-05-22T01:18:48.286Z,14.48
2023-05-22T01:19:50.462Z,15.98
2023-05-22T01:20:30.488Z,16.98
2023-05-22T01:21:10.135Z,15.43
2023-05-22T01:21:47.765Z,15.45
2023-05-22T01:22:33.928Z,16.33
2023-05-22T01:23:55.234Z,17.13
2023-05-22T01:24:51.859Z,15.15
2023-05-22T01:25:41.222Z,14.88
2023-05-22T01:26:23.341Z,14.95
2023-05-22T01:27:25.664Z,15.35
2023-05-22T01:28:16.418Z,15.15
2023-05-22T01:29:15.614Z,16.23
2023-05-22T01:29:56.464Z,15.70
2023-05-22T01:30:48.506Z,15.82
2023-05-22T01:31:25.928Z,14.45
2023-05-22T01:32:00.520Z,16.55
2023-05-22T01:32:35.749Z,16.02
2023-05-22T01:33:09.545Z,15.48
2023-05-22T01:33:46.282Z,15.68
2023-05-22T01:34:20.877Z,15.40
2023-05-22T01:34:56.068Z,17.45
2023-05-22T01:35:28.682Z,16.63
2023-05-22T01:36:03.858Z,16.88
2023-05-22T01:36:37.267Z,16.42
2023-05-22T01:37:10.916Z,14.98
2023-05-22T01:37:44.678Z,14.88
2023-05-22T01:38:17.290Z,14.48
2023-05-22T01:38:49.750Z,16.25
2023-05-22T01:39:23.675Z,16.08
2023-05-22T01:39:55.925Z,15.77
2023-05-22T01:40:29.091Z,14.68
2023-05-22T01:41:01.555Z,17.73
2023-05-22T01:41:35.087Z,16.30
2023-05-22T01:42:07.761Z,14.70
2023-05-22T01:42:41.229Z,14.70
2023-05-22T01:43:14.497Z,16.08
2023-05-22T01:43:46.614Z,14.98
2023-05-22T01:44:18.510Z,16.20
2023-05-22T01:44:51.551Z,16.38
2023-05-22T01:45:23.718Z,15.40
2023-05-22T01:45:56.983Z,15.82
2023-05-22T01:46:30.737Z,16.58
2023-05-22T01:47:05.322Z,16.55
2023-05-22T01:47:37.214Z,15.07
2023-05-22T01:48:10.182Z,15.25
2023-05-22T01:48:42.082Z,16.70
2023-05-22T01:49:13.972Z,15.93
2023-05-22T01:49:48.187Z,16.17
2023-05-22T01:50:20.999Z,16.15
2023-05-22T01:50:53.920Z,17.65
2023-05-22T01:51:38.051Z,16.42
2023-05-22T01:52:20.989Z,16.05
2023-05-22T01:52:59.644Z,16.73
2023-05-22T01:53:39.827Z,16.88
2023-05-22T01:54:18.122Z,15.50
2023-05-22T01:54:58.210Z,15.77
2023-05-22T01:55:36.047Z,16.08
2023-05-22T01:56:12.815Z,16.67
2023-05-22T01:56:50.068Z,15.00
2023-05-22T01:57:29.168Z,16.77
2023-05-22T01:58:12.497Z,17.88
2023-05-22T01:58:49.533Z,16.42
2023-05-22T01:59:30.755Z,16.83
2023-05-22T02:00:09.565Z,15.93
2023-05-22T02:00:45.847Z,16.73
2023-05-22T02:01:23.369Z,16.88
2023-05-22T02:01:55.683Z,15.98
2023-05-22T02:02:28.412Z,14.95
2023-05-22T02:03:09.694Z,16.35
2023-05-22T02:03:42.476Z,16.27
2023-05-22T02:04:16.207Z,15.40
2023-05-22T02:05:01.184Z,14.93
2023-05-22T02:05:38.635Z,14.93
2023-05-22T02:06:13.623Z,14.57
2023-05-22T02:06:47.495Z,16.58
2023-05-22T02:07:22.132Z,16.00
2023-05-22T02:07:57.544Z,14.93
2023-05-22T02:08:31.992Z,16.48
2023-05-22T02:09:04.189Z,14.55
2023-05-22T02:09:37.298Z,14.95
2023-05-22T02:10:12.206Z,14.73
2023-05-22T02:10:45.010Z,14.73
2023-05-22T02:11:17.345Z,17.08
2023-05-22T02:11:50.726Z,14.90
2023-05-22T02:12:23.237Z,16.38
2023-05-22T02:12:55.568Z,16.05
2023-05-22T02:13:29.178Z,16.60
2023-05-22T02:14:01.800Z,16.05
2023-05-22T02:14:34.668Z,16.45
2023-05-22T02:15:09.652Z,15.93
2023-05-22T02:15:44.548Z,14.48
2023-05-22T02:16:21.646Z,15.77
2023-05-22T02:16:53.640Z,15.13
2023-05-22T02:17:26.017Z,15.48
2023-05-22T02:18:01.668Z,16.42
2023-05-22T02:18:33.632Z,15.18
2023-05-22T02:19:06.004Z,16.25
2023-05-22T02:19:38.908Z,17.17
2023-05-22T02:20:14.322Z,14.15
2023-05-22T02:20:46.366Z,15.75
2023-05-22T02:21:19.248Z,16.65
2023-05-22T02:21:51.251Z,16.13
2023-05-22T02:22:23.173Z,16.00
2023-05-22T02:22:55.974Z,15.63
2023-05-22T02:23:29.437Z,14.73
2023-05-22T02:24:01.786Z,15.68
2023-05-22T02:24:36.846Z,15.63
2023-05-22T02:25:14.076Z,14.82
2023-05-22T02:25:45.900Z,15.25
2023-05-22T02:26:18.700Z,16.98
2023-05-22T02:26:50.675Z,16.58
2023-05-22T02:27:23.485Z,15.48
2023-05-22T02:27:55.351Z,15.90
2023-05-22T02:28:27.386Z,15.85
2023-05-22T02:29:00.335Z,15.43
2023-05-22T02:29:32.147Z,16.60
2023-05-22T02:30:04.623Z,15.90
2023-05-22T02:30:37.473Z,15.40
2023-05-22T02:31:09.447Z,15.27
2023-05-22T02:31:42.694Z,16.05
2023-05-22T02:32:15.502Z,15.75
2023-05-22T02:32:47.350Z,16.02
2023-05-22T02:33:19.310Z,13.90
2023-05-22T02:33:52.196Z,15.20
2023-05-22T02:34:24.040Z,14.98
2023-05-22T02:34:55.862Z,15.82
2023-05-22T02:35:28.653Z,16.17
2023-05-22T02:36:00.537Z,15.02
2023-05-22T02:36:32.458Z,14.13
2023-05-22T02:37:05.978Z,16.23
2023-05-22T02:37:38.558Z,13.82
2023-05-22T02:38:10.419Z,15.13
2023-05-22T02:38:43.206Z,15.55
2023-05-22T02:39:15.001Z,15.65
2023-05-22T02:39:46.817Z,15.15
2023-05-22T02:40:19.905Z,15.48
2023-05-22T02:40:51.770Z,15.30
2023-05-22T02:41:23.621Z,15.38
2023-05-22T02:41:56.532Z,14.77
2023-05-22T02:42:28.342Z,15.07
2023-05-22T02:43:00.361Z,16.42
2023-05-22T02:43:33.176Z,14.60
2023-05-22T02:44:05.212Z,15.18
2023-05-22T02:44:37.070Z,15.13
2023-05-22T02:45:11.020Z,14.25
2023-05-22T02:45:42.894Z,14.50
2023-05-22T02:46:14.838Z,14.80
2023-05-22T02:46:49.140Z,13.88
2023-05-22T02:47:21.150Z,13.27
2023-05-22T02:47:53.012Z,12.90
2023-05-22T02:48:25.894Z,14.63
2023-05-22T02:48:57.731Z,15.57
2023-05-22T02:49:29.598Z,15.48
2023-05-22T02:50:01.546Z,14.48
2023-05-22T02:50:34.333Z,13.18
2023-05-22T02:51:06.401Z,13.25
2023-05-22T02:51:38.241Z,12.98
2023-05-22T02:52:11.110Z,11.93
2023-05-22T02:52:45.104Z,13.18
2023-05-22T02:53:18.010Z,12.90
2023-05-22T02:53:49.905Z,13.55
2023-05-22T02:54:21.788Z,13.30
2023-05-22T02:54:54.589Z,13.80
2023-05-22T02:55:26.429Z,13.88
2023-05-22T02:55:58.892Z,14.02
2023-05-22T02:56:31.795Z,13.65
2023-05-22T02:57:04.052Z,14.80
2023-05-22T02:57:35.890Z,12.77
2023-05-22T02:58:11.130Z,14.32
2023-05-22T02:58:42.974Z,15.00
2023-05-22T02:59:14.753Z,14.40
2023-05-22T02:59:47.591Z,14.60
2023-05-22T03:00:20.590Z,14.95
2023-05-22T03:00:52.939Z,14.57
2023-05-22T03:01:27.063Z,15.63
2023-05-22T03:02:00.542Z,14.60
2023-05-22T03:02:32.609Z,14.27
2023-05-22T03:03:05.587Z,14.85
2023-05-22T03:03:37.686Z,14.82
2023-05-22T03:04:12.689Z,14.13
2023-05-22T03:04:46.388Z,13.68
2023-05-22T03:05:18.421Z,13.55
2023-05-22T03:05:53.634Z,13.65
2023-05-22T03:06:26.450Z,13.32
2023-05-22T03:06:59.030Z,13.63
2023-05-22T03:07:31.401Z,14.15
2023-05-22T03:08:04.313Z,14.50
2023-05-22T03:08:41.412Z,14.13
2023-05-22T03:09:13.297Z,13.55
2023-05-22T03:09:46.132Z,13.27
2023-05-22T03:10:18.025Z,13.98
2023-05-22T03:10:50.451Z,14.60
2023-05-22T03:11:23.246Z,13.10
2023-05-22T03:11:55.277Z,15.00
2023-05-22T03:12:27.114Z,14.48
2023-05-22T03:12:59.897Z,15.18
2023-05-22T03:13:31.709Z,14.25
2023-05-22T03:14:03.770Z,13.88
2023-05-22T03:14:36.581Z,13.00
2023-05-22T03:15:10.622Z,14.40
2023-05-22T03:15:42.443Z,15.82
2023-05-22T03:16:14.295Z,14.40
2023-05-22T03:16:47.290Z,14.05
2023-05-22T03:17:20.581Z,14.73
2023-05-22T03:17:52.455Z,15.10
2023-05-22T03:18:27.569Z,14.70
2023-05-22T03:19:08.607Z,14.80
2023-05-22T03:19:40.561Z,14.25
2023-05-22T03:20:16.658Z,14.43
2023-05-22T03:20:48.672Z,13.82
2023-05-22T03:21:20.510Z,15.07
2023-05-22T03:21:53.321Z,14.57
2023-05-22T03:22:25.174Z,14.48
2023-05-22T03:22:56.987Z,13.95
2023-05-22T03:23:29.821Z,13.35
2023-05-22T03:24:01.679Z,12.45
2023-05-22T03:24:33.500Z,14.15
2023-05-22T03:25:09.318Z,14.93
2023-05-22T03:25:41.160Z,14.07
2023-05-22T03:26:13.058Z,14.02
2023-05-22T03:26:46.012Z,12.60
2023-05-22T03:27:17.970Z,14.43
2023-05-22T03:27:49.812Z,13.75
2023-05-22T03:28:22.628Z,13.40
2023-05-22T03:28:54.531Z,15.60
2023-05-22T03:29:26.388Z,12.23
2023-05-22T03:29:59.178Z,13.45
2023-05-22T03:30:31.086Z,13.38
2023-05-22T03:31:03.068Z,13.60
2023-05-22T03:31:35.865Z,15.05
2023-05-22T03:32:08.159Z,13.88
2023-05-22T03:32:41.586Z,13.65
2023-05-22T03:33:14.533Z,13.45
2023-05-22T03:33:46.377Z,15.30
2023-05-22T03:34:18.212Z,13.77
2023-05-22T03:34:51.048Z,14.07
2023-05-22T03:35:24.688Z,13.48
2023-05-22T03:35:56.720Z,14.80
2023-05-22T03:36:32.305Z,14.30
2023-05-22T03:37:04.554Z,13.88
2023-05-22T03:37:36.421Z,13.57
2023-05-22T03:38:09.227Z,14.75
2023-05-22T03:38:41.325Z,14.60
2023-05-22T03:39:13.175Z,14.10
2023-05-22T03:39:46.218Z,14.35
2023-05-22T03:40:18.037Z,12.48
2023-05-22T03:40:49.858Z,13.38
2023-05-22T03:41:22.660Z,14.63
2023-05-22T03:41:54.507Z,14.35
2023-05-22T03:42:26.331Z,13.88
2023-05-22T03:42:59.107Z,16.27
2023-05-22T03:43:31.219Z,14.00
2023-05-22T03:44:03.302Z,14.75
2023-05-22T03:44:36.177Z,14.88
2023-05-22T03:45:08.859Z,14.30
2023-05-22T03:45:40.754Z,13.02
2023-05-22T03:46:13.873Z,14.20
2023-05-22T03:46:46.408Z,14.93
2023-05-22T03:47:18.332Z,15.48
2023-05-22T03:47:52.963Z,14.90
2023-05-22T03:48:25.021Z,14.70
2023-05-22T03:48:56.851Z,15.05
2023-05-22T03:49:29.647Z,14.25
2023-05-22T03:50:01.536Z,13.65
2023-05-22T03:50:33.428Z,14.23
2023-05-22T03:51:05.743Z,13.48
2023-05-22T03:51:38.539Z,14.40
2023-05-22T03:52:10.747Z,14.85
2023-05-22T03:52:42.577Z,14.13
2023-05-22T03:53:15.434Z,14.75
2023-05-22T03:53:47.498Z,13.05
2023-05-22T03:54:19.417Z,13.77
2023-05-22T03:54:53.410Z,14.15
2023-05-22T03:55:26.514Z,14.23
2023-05-22T03:55:59.240Z,13.93
2023-05-22T03:56:32.060Z,14.02
2023-05-22T03:57:04.439Z,14.07
2023-05-22T03:57:36.249Z,15.27
2023-05-22T03:58:09.081Z,14.05
2023-05-22T03:58:40.930Z,13.80
2023-05-22T03:59:12.750Z,13.80
2023-05-22T03:59:46.048Z,14.50
2023-05-22T04:00:19.614Z,13.38
2023-05-22T04:00:52.382Z,14.43
2023-05-22T04:01:25.215Z,13.73
2023-05-22T04:01:57.952Z,13.75
2023-05-22T04:02:30.144Z,12.70
2023-05-22T04:03:04.496Z,13.27
2023-05-22T04:03:36.529Z,13.82
2023-05-22T04:04:09.468Z,14.18
2023-05-22T04:04:42.292Z,15.55
2023-05-22T04:05:14.255Z,13.93
2023-05-22T04:05:46.341Z,14.25
2023-05-22T04:06:21.579Z,13.75
2023-05-22T04:06:53.866Z,14.05
2023-05-22T04:07:25.683Z,13.48
2023-05-22T04:07:58.600Z,14.52
2023-05-22T04:08:30.745Z,15.23
2023-05-22T04:09:02.569Z,15.93
2023-05-22T04:09:36.736Z,14.27
2023-05-22T04:10:09.217Z,13.85
2023-05-22T04:10:42.352Z,14.80
2023-05-22T04:11:15.712Z,14.35
2023-05-22T04:11:48.638Z,14.10
2023-05-22T04:12:20.478Z,13.40
2023-05-22T04:12:53.305Z,12.52
2023-05-22T04:13:25.679Z,14.63
2023-05-22T04:14:02.776Z,13.75
2023-05-22T04:14:35.644Z,19.65
2023-05-22T04:15:09.043Z,14.32
2023-05-22T04:15:41.511Z,13.07
2023-05-22T04:16:17.408Z,13.43
2023-05-22T04:16:50.508Z,11.77
2023-05-22T04:17:22.532Z,12.35
2023-05-22T04:17:55.087Z,12.82
2023-05-22T04:18:29.342Z,12.15
2023-05-22T04:19:03.105Z,11.45
2023-05-22T04:19:35.116Z,11.77
2023-05-22T04:20:09.404Z,12.02
2023-05-22T04:20:41.533Z,13.15
2023-05-22T04:21:13.782Z,12.85
2023-05-22T04:21:47.485Z,12.77
2023-05-22T04:22:19.338Z,12.55
2023-05-22T04:22:51.486Z,12.52
2023-05-22T04:23:24.324Z,12.15
2023-05-22T04:23:56.174Z,12.15
2023-05-22T04:24:28.056Z,13.00
2023-05-22T04:25:00.927Z,12.02
2023-05-22T04:25:34.251Z,12.93
2023-05-22T04:26:08.614Z,11.65
2023-05-22T04:26:42.728Z,11.18
2023-05-22T04:27:15.173Z,12.18
2023-05-22T04:27:48.909Z,12.30
2023-05-22T04:28:22.263Z,13.95
2023-05-22T04:28:54.472Z,11.85
2023-05-22T04:29:28.441Z,12.43
2023-05-22T04:30:00.601Z,11.82
2023-05-22T04:30:33.743Z,23.13
2023-05-22T04:31:07.357Z,19.38
2023-05-22T04:31:39.364Z,16.27
2023-05-22T04:32:11.475Z,16.05
2023-05-22T04:32:45.067Z,15.35
2023-05-22T04:33:18.008Z,16.25
2023-05-22T04:33:51.224Z,15.75
2023-05-22T04:34:24.492Z,18.42
2023-05-22T04:34:58.215Z,22.63
2023-05-22T04:35:30.107Z,22.95
2023-05-22T04:36:03.276Z,20.27
2023-05-22T04:36:35.846Z,15.68
2023-05-22T04:37:07.754Z,16.23
2023-05-22T04:37:42.188Z,15.15
2023-05-22T04:38:14.182Z,14.02
2023-05-22T04:38:47.501Z,13.27
2023-05-22T04:39:20.356Z,12.20
2023-05-22T04:39:53.437Z,12.82
2023-05-22T04:40:26.186Z,12.15
2023-05-22T04:41:00.306Z,12.18
2023-05-22T04:41:32.440Z,13.18
2023-05-22T04:42:05.822Z,13.70
2023-05-22T04:42:38.290Z,11.02
2023-05-22T04:43:11.525Z,13.20
2023-05-22T04:43:43.841Z,13.23
2023-05-22T04:44:15.673Z,13.85
2023-05-22T04:44:48.466Z,12.38
2023-05-22T04:45:21.150Z,13.80
2023-05-22T04:45:54.036Z,20.00
2023-05-22T04:46:28.540Z,16.00
2023-05-22T04:47:01.013Z,18.80
2023-05-22T04:47:33.046Z,20.70
2023-05-22T04:48:07.989Z,21.85
2023-05-22T04:48:40.213Z,25.77
2023-05-22T04:49:13.454Z,21.35
2023-05-22T04:49:46.570Z,15.88
2023-05-22T04:50:18.755Z,18.70
2023-05-22T04:50:50.728Z,15.80
2023-05-22T04:51:23.819Z,13.63
2023-05-22T04:51:57.257Z,15.40
2023-05-22T04:52:29.150Z,13.80
2023-05-22T04:53:04.084Z,12.32
2023-05-22T04:53:36.894Z,12.25
2023-05-22T04:54:08.806Z,13.38
2023-05-22T04:54:43.264Z,12.50
2023-05-22T04:55:15.369Z,12.52
2023-05-22T04:55:47.266Z,12.30
2023-05-22T04:56:31.803Z,12.38
2023-05-22T04:57:07.309Z,12.07
2023-05-22T04:57:40.176Z,13.05
2023-05-22T04:58:12.184Z,13.48
2023-05-22T04:58:44.988Z,12.40
2023-05-22T04:59:16.793Z,12.57
2023-05-22T04:59:48.979Z,13.20
2023-05-22T05:00:26.320Z,11.80
2023-05-22T05:00:59.050Z,13.52
2023-05-22T05:01:33.081Z,12.05
2023-05-22T05:02:06.727Z,12.55
2023-05-22T05:02:38.632Z,12.70
2023-05-22T05:03:11.756Z,12.18
2023-05-22T05:03:45.356Z,11.82
2023-05-22T05:04:18.759Z,13.10
2023-05-22T05:04:50.579Z,25.10
2023-05-22T05:05:23.523Z,34.13
2023-05-22T05:05:56.601Z,26.98
2023-05-22T05:06:28.468Z,25.08
2023-05-22T05:07:02.425Z,24.77
2023-05-22T05:07:37.664Z,26.05
2023-05-22T05:08:10.534Z,33.20
2023-05-22T05:08:44.323Z,23.70
2023-05-22T05:09:17.151Z,16.73
2023-05-22T05:09:49.199Z,14.15
2023-05-22T05:10:21.198Z,14.00
2023-05-22T05:10:54.016Z,13.10
2023-05-22T05:11:26.025Z,13.55
2023-05-22T05:11:58.217Z,11.68
2023-05-22T05:12:30.980Z,11.25
2023-05-22T05:13:02.967Z,11.30
2023-05-22T05:13:34.805Z,11.70
2023-05-22T05:14:07.591Z,13.10
2023-05-22T05:14:39.442Z,12.50
2023-05-22T05:15:11.409Z,12.40
2023-05-22T05:15:44.248Z,10.98
2023-05-22T05:16:16.261Z,12.77
2023-05-22T05:16:48.206Z,12.93
2023-05-22T05:17:22.282Z,10.63
2023-05-22T05:17:54.191Z,11.52
2023-05-22T05:18:26.533Z,11.23
2023-05-22T05:18:59.401Z,12.45
2023-05-22T05:19:34.166Z,11.13
2023-05-22T05:20:09.170Z,11.77
2023-05-22T05:20:41.975Z,10.93
2023-05-22T05:21:13.800Z,10.48
2023-05-22T05:21:45.831Z,12.23
2023-05-22T05:22:18.725Z,11.80
2023-05-22T05:22:51.034Z,11.15
2023-05-22T05:23:22.909Z,12.18
2023-05-22T05:23:55.762Z,11.98
2023-05-22T05:24:27.598Z,11.65
2023-05-22T05:25:00.405Z,10.80
2023-05-22T05:25:32.407Z,12.45
2023-05-22T05:26:05.421Z,10.82
2023-05-22T05:26:37.408Z,11.80
2023-05-22T05:27:09.249Z,10.13
2023-05-22T05:27:42.073Z,10.75
2023-05-22T05:28:13.903Z,11.52
2023-05-22T05:28:45.782Z,10.88
2023-05-22T05:29:18.676Z,11.73
2023-05-22T05:29:50.517Z,11.32
2023-05-22T05:30:22.450Z,12.50
2023-05-22T05:30:55.498Z,13.00
2023-05-22T05:31:27.352Z,11.15
2023-05-22T05:31:59.281Z,11.23
2023-05-22T05:32:32.243Z,11.50
2023-05-22T05:33:04.286Z,11.48
2023-05-22T05:33:37.138Z,11.57
2023-05-22T05:34:09.147Z,11.63
2023-05-22T05:34:42.380Z,14.88
2023-05-22T05:35:15.491Z,28.65
2023-05-22T05:35:50.194Z,18.17
2023-05-22T05:36:24.624Z,12.57
2023-05-22T05:36:57.238Z,14.15
2023-05-22T05:37:29.133Z,12.65
2023-05-22T05:38:01.987Z,12.45
2023-05-22T05:38:33.806Z,12.05
2023-05-22T05:39:05.704Z,11.85
2023-05-22T05:39:38.505Z,12.40
2023-05-22T05:40:11.167Z,12.65
2023-05-22T05:40:43.792Z,12.35
2023-05-22T05:41:16.720Z,12.52
2023-05-22T05:41:48.626Z,12.98
2023-05-22T05:42:20.455Z,11.10
2023-05-22T05:42:53.241Z,12.95
2023-05-22T05:43:25.500Z,12.55
2023-05-22T05:43:59.881Z,12.38
2023-05-22T05:44:32.758Z,10.93
2023-05-22T05:45:05.430Z,12.55
2023-05-22T05:45:37.325Z,13.07
2023-05-22T05:46:10.206Z,11.07
2023-05-22T05:46:42.176Z,12.15
2023-05-22T05:47:14.254Z,12.30
2023-05-22T05:47:47.123Z,12.02
2023-05-22T05:48:18.961Z,12.38
2023-05-22T05:48:50.851Z,12.27
2023-05-22T05:49:22.731Z,12.05
2023-05-22T05:49:58.235Z,12.10
2023-05-22T05:50:30.117Z,12.98
2023-05-22T05:51:01.983Z,12.88
2023-05-22T05:51:34.785Z,11.60
2023-05-22T05:52:07.887Z,12.63
2023-05-22T05:52:39.764Z,14.30
2023-05-22T05:53:12.568Z,13.60
2023-05-22T05:53:44.431Z,13.10
2023-05-22T05:54:17.199Z,12.35
2023-05-22T05:54:48.989Z,13.23
2023-05-22T05:55:21.808Z,12.32
2023-05-22T05:55:53.688Z,12.45
2023-05-22T05:56:25.640Z,12.07
2023-05-22T05:56:58.419Z,11.65
2023-05-22T05:57:31.943Z,13.15
2023-05-22T05:58:04.768Z,12.05
2023-05-22T05:58:36.626Z,12.88
2023-05-22T05:59:09.731Z,12.77
2023-05-22T05:59:41.593Z,12.20
2023-05-22T06:00:14.224Z,12.35
2023-05-22T06:00:47.013Z,10.75
2023-05-22T06:01:19.336Z,12.75
2023-05-22T06:01:51.393Z,11.35
2023-05-22T06:02:24.432Z,12.43
2023-05-22T06:02:56.422Z,10.70
2023-05-22T06:03:28.431Z,12.20
2023-05-22T06:04:03.170Z,12.07
2023-05-22T06:04:35.753Z,14.05
2023-05-22T06:05:10.149Z,11.48
2023-05-22T06:05:43.028Z,13.43
2023-05-22T06:06:15.289Z,11.90
2023-05-22T06:06:47.738Z,12.65
2023-05-22T06:07:20.872Z,12.68
2023-05-22T06:07:52.938Z,12.55
2023-05-22T06:08:24.787Z,13.50
2023-05-22T06:08:57.650Z,12.45
2023-05-22T06:09:29.493Z,13.85
2023-05-22T06:10:02.400Z,12.13
2023-05-22T06:10:34.619Z,11.00
2023-05-22T06:11:06.460Z,16.02
2023-05-22T06:11:39.272Z,12.05
2023-05-22T06:12:12.804Z,12.50
2023-05-22T06:12:45.922Z,12.63
2023-05-22T06:13:17.727Z,13.00
2023-05-22T06:13:49.593Z,12.18
2023-05-22T06:14:22.392Z,12.63
2023-05-22T06:14:54.252Z,12.27
2023-05-22T06:15:27.114Z,11.43
2023-05-22T06:16:01.315Z,12.23
2023-05-22T06:16:35.999Z,10.23
2023-05-22T06:17:09.113Z,11.07
2023-05-22T06:17:42.021Z,11.80
2023-05-22T06:18:13.901Z,11.45
2023-05-22T06:18:46.540Z,11.27
2023-05-22T06:19:19.445Z,11.48
2023-05-22T06:19:51.308Z,11.82
2023-05-22T06:20:25.085Z,12.18
2023-05-22T06:20:58.963Z,11.40
2023-05-22T06:21:31.130Z,11.45
2023-05-22T06:22:04.042Z,12.55
2023-05-22T06:22:36.019Z,12.50
2023-05-22T06:23:07.931Z,11.15
2023-05-22T06:23:40.897Z,10.68
2023-05-22T06:24:12.756Z,12.27
2023-05-22T06:24:45.600Z,10.88
2023-05-22T06:25:17.553Z,10.68
2023-05-22T06:25:50.355Z,11.10
2023-05-22T06:26:22.267Z,10.10
2023-05-22T06:26:55.460Z,10.75
2023-05-22T06:27:27.747Z,13.50
2023-05-22T06:28:00.758Z,11.23
2023-05-22T06:28:32.580Z,12.07
2023-05-22T06:29:06.129Z,10.65
2023-05-22T06:29:38.045Z,10.30
2023-05-22T06:30:10.195Z,11.90
2023-05-22T06:30:43.000Z,10.93
2023-05-22T06:31:15.333Z,10.85
2023-05-22T06:31:47.507Z,10.90
2023-05-22T06:32:20.742Z,12.00
2023-05-22T06:32:52.823Z,10.88
2023-05-22T06:33:24.923Z,11.25
2023-05-22T06:33:57.826Z,12.05
2023-05-22T06:34:29.781Z,11.13
2023-05-22T06:35:02.013Z,10.60
2023-05-22T06:35:36.378Z,9.23
2023-05-22T06:36:08.828Z,10.52
2023-05-22T06:36:40.819Z,10.75
2023-05-22T06:37:13.769Z,11.60
2023-05-22T06:37:45.709Z,10.48
2023-05-22T06:38:17.586Z,10.90
2023-05-22T06:38:51.795Z,11.45
2023-05-22T06:39:23.615Z,10.80
2023-05-22T06:39:55.467Z,11.02
2023-05-22T06:40:28.356Z,10.05
2023-05-22T06:41:00.442Z,11.10
2023-05-22T06:41:33.556Z,11.55
2023-05-22T06:42:05.965Z,13.60
2023-05-22T06:42:38.743Z,11.25
2023-05-22T06:43:10.604Z,11.15
2023-05-22T06:43:42.495Z,10.48
2023-05-22T06:44:15.257Z,10.57
2023-05-22T06:44:47.069Z,10.98
2023-05-22T06:45:19.821Z,10.45
2023-05-22T06:45:52.744Z,10.18
2023-05-22T06:46:26.143Z,11.50
2023-05-22T06:46:58.238Z,10.35
2023-05-22T06:47:32.136Z,10.77
2023-05-22T06:48:04.461Z,11.07
2023-05-22T06:48:36.524Z,12.00
2023-05-22T06:49:09.409Z,11.02
2023-05-22T06:49:41.332Z,11.85
2023-05-22T06:50:13.208Z,11.00
2023-05-22T06:50:47.352Z,11.00
2023-05-22T06:51:19.216Z,12.43
2023-05-22T06:51:51.561Z,11.32
2023-05-22T06:52:24.388Z,10.82
2023-05-22T06:52:56.545Z,10.05
2023-05-22T06:53:28.429Z,10.55
2023-05-22T06:54:01.291Z,10.05
2023-05-22T06:54:33.238Z,11.88
2023-05-22T06:55:05.789Z,9.95
2023-05-22T06:55:38.707Z,10.82
2023-05-22T06:56:10.527Z,11.80
2023-05-22T06:56:42.447Z,12.65
2023-05-22T06:57:15.230Z,12.38
2023-05-22T06:57:47.096Z,11.45
2023-05-22T06:58:18.939Z,11.48
2023-05-22T06:58:51.732Z,12.05
2023-05-22T06:59:23.562Z,10.60
2023-05-22T06:59:55.672Z,12.10
2023-05-22T07:00:28.626Z,10.93
2023-05-22T07:01:00.705Z,10.00
2023-05-22T07:01:34.092Z,11.57
2023-05-22T07:02:06.296Z,11.10
2023-05-22T07:02:38.278Z,10.88
2023-05-22T07:03:11.968Z,10.70
2023-05-22T07:03:43.906Z,9.70
2023-05-22T07:04:15.855Z,10.55
2023-05-22T07:04:48.636Z,10.73
2023-05-22T07:05:20.517Z,12.05
2023-05-22T07:05:57.540Z,10.63
2023-05-22T07:06:32.280Z,11.00
2023-05-22T07:07:04.463Z,10.60
2023-05-22T07:07:37.266Z,18.80
2023-05-22T07:08:09.096Z,9.50
2023-05-22T07:08:41.885Z,11.45
2023-05-22T07:09:15.634Z,10.40
2023-05-22T07:09:47.561Z,9.73
2023-05-22T07:10:20.588Z,11.23
2023-05-22T07:10:52.484Z,11.02